Norris Rancho Marino Reserve, California Weather observations

Data are for 10 minute period ending at time listed.
 Day   Time   Solar   Ave.   Ave.  Ave.  Vector  Max.   Baro.   Total    
  of    of     Rad.   Air    Rel.  Wind   Wind   Wind  Press.  Precip.   
Year   Day            Temp.  Hum.  Speed  Dir.   Gust                    
2015   (PST)  Kw/m2    F      %     mph   deg.    mph    mb.     in.     
-------------------------------------------------------------------------
  64    5:50   0.00   52.7    62    6.4    64     8.6   1019.6    0.00 
  64    6:00   0.00   54.2    59    6.5    72     9.2   1019.6    0.00 
  64    6:10   0.00   55.6    56    7.3    71    12.2   1019.6    0.00 
  64    6:20   0.00   55.7    56    7.8    77    13.2   1019.8    0.00 
  64    6:30   0.00   55.7    56    7.3    74    10.4   1019.9    0.00 
  64    6:40   0.01   56.6    54    8.3    77    12.4   1020.1    0.00 
  64    6:50   0.01   56.3    55    7.9    85    12.6   1020.2    0.00 
  64    7:00   0.02   55.9    56    7.1    78    10.6   1020.3    0.00 
  64    7:10   0.03   56.2    56    7.3    83    11.7   1020.5    0.00 
  64    7:20   0.03   56.1    56    7.4    77    10.7   1020.7    0.00 
  64    7:30   0.07   57.8    52    7.5    82    12.9   1020.8    0.00 
  64    7:40   0.16   58.4    52    7.4    79    11.0   1021.1    0.00 
  64    7:50   0.19   59.3    51    7.0    76    12.1   1021.5    0.00 
  64    8:00   0.23   60.6    48    7.6    74    14.5   1021.8    0.00 
  64    8:10   0.26   61.4    47    7.7    79    12.6   1022.0    0.00 
  64    8:20   0.30   62.3    46    8.9    82    16.2   1022.2    0.00 
  64    8:30   0.33   62.9    45    8.3    77    15.1   1022.3    0.00 
  64    8:40   0.37   63.4    44    8.3    79    14.6   1022.4    0.00 
  64    8:50   0.40   63.9    44    8.4    74    14.2   1022.4    0.00 
  64    9:00   0.43   64.3    42    9.3    75    15.1   1022.5    0.00 
  64    9:10   0.47   64.8    41   10.0    81    17.6   1022.5    0.00 
  64    9:20   0.50   65.2    41   10.2    81    17.6   1022.5    0.00 
  64    9:30   0.53   65.6    41    9.4    77    16.2   1022.5    0.00 
  64    9:40   0.56   65.9    40   11.1    80    17.2   1022.3    0.00 
  64    9:50   0.58   66.3    39   10.8    74    18.7   1022.3    0.00 
  64   10:00   0.61   66.7    39    9.9    70    19.9   1022.2    0.00 
  64   10:10   0.64   67.4    38    9.9    76    19.9   1022.1    0.00 
  64   10:20   0.66   68.0    38    9.0    82    14.8   1022.1    0.00 
  64   10:30   0.68   68.3    36   10.6    88    16.7   1022.0    0.00 
  64   10:40   0.70   68.6    34   11.4    88    17.0   1022.0    0.00 
  64   10:50   0.72   68.9    33   11.5    90    18.1   1021.9    0.00 
  64   11:00   0.74   69.3    32   10.1    91    16.4   1022.0    0.00 
  64   11:10   0.76   69.6    31    9.8    87    16.6   1021.9    0.00 
  64   11:20   0.77   70.0    30    9.6    98    15.8   1021.9    0.00 
  64   11:30   0.78   70.2    30    9.2    90    15.9   1021.8    0.00 
  64   11:40   0.79   70.8    30    9.0   108    13.7   1021.8    0.00 
  64   11:50   0.80   70.6    29    7.9    83    12.1   1021.7    0.00 
  64   12:00   0.80   71.2    31    7.1   111    12.2   1021.6    0.00 
  64   12:10   0.81   71.2    29    6.7   144    10.7   1021.5    0.00 
  64   12:20   0.82   69.7    36    6.6   164     8.8   1021.4    0.00 
  64   12:30   0.82   68.9    42    5.7   171     8.8   1021.3    0.00 
  64   12:40   0.81   66.7    55    6.6   268    10.2   1021.3    0.00 
  64   12:50   0.80   65.0    58   10.6   293    11.9   1021.2    0.00 
  64   13:00   0.79   64.6    55   10.5   290    12.3   1021.3    0.00 
  64   13:10   0.79   64.5    55    8.8   292    10.5   1021.3    0.00 
  64   13:20   0.78   64.6    53    7.6   292     9.3   1021.3    0.00 
  64   13:30   0.77   64.4    58    8.4   290    10.8   1021.2    0.00 
  64   13:40   0.75   63.7    62   10.1   291    12.5   1021.1    0.00 
  64   13:50   0.73   63.5    63    9.4   291    12.1   1021.0    0.00 
  64   14:00   0.71   61.8    67    8.1   292    10.3   1020.9    0.00 
  64   14:10   0.70   62.2    67    7.4   291    10.3   1020.8    0.00 
  64   14:20   0.68   62.5    67    7.6   292     9.8   1020.8    0.00 
  64   14:30   0.66   63.4    66    7.1   291    10.2   1020.7    0.00 
  64   14:40   0.63   63.0    68    8.8   294    11.5   1020.6    0.00 
  64   14:50   0.61   63.5    66    9.8   295    12.3   1020.5    0.00 
  64   15:00   0.55   63.6    64   10.6   297    13.2   1020.4    0.00 
  64   15:10   0.56   64.0    63   10.1   296    12.0   1020.2    0.00 
  64   15:20   0.53   63.7    64   10.0   295    12.3   1020.1    0.00 
  64   15:30   0.50   63.7    65    9.5   298    12.4   1020.1    0.00 
  64   15:40   0.47   63.5    66    9.6   298    12.1   1020.1    0.00 
  64   15:50   0.44   64.1    61    8.8   302    11.4   1020.0    0.00 
  64   16:00   0.41   64.8    52   10.8   307    14.7   1019.8    0.00 
  64   16:10   0.38   65.0    50   10.6   308    14.2   1019.7    0.00 
  64   16:20   0.35   65.3    48    9.7   306    12.5   1019.6    0.00 
  64   16:30   0.31   65.1    54    8.0   304    11.9   1019.6    0.00 
  64   16:40   0.28   64.4    60    6.9   304     9.3   1019.5    0.00 
  64   16:50   0.24   64.3    57    8.8   310    11.3   1019.5    0.00 
  64   17:00   0.21   64.2    54    8.6   308    11.2   1019.5    0.00 
  64   17:10   0.18   63.9    54    9.4   306    12.1   1019.5    0.00 
  64   17:20   0.14   63.6    52    9.8   305    12.4   1019.5    0.00 
  64   17:30   0.11   62.5    56    9.3   307    12.0   1019.7    0.00 
  64   17:40   0.08   62.1    55    8.8   312    11.5   1019.8    0.00 
  64   17:50   0.05   62.0    52    7.8   315     9.9   1020.0    0.00 
  64   18:00   0.02   62.7    46    5.9   323     9.0   1020.2    0.00 
  64   18:10   0.01   62.8    40    4.5   349     7.8   1020.3    0.00 
  64   18:20   0.00   61.9    39    3.9   340     5.6   1020.4    0.00 
  64   18:30   0.00   60.6    41    4.4   345     7.6   1020.4    0.00 
  64   18:40   0.00   59.6    42    3.7   326     5.3   1020.4    0.00 
  64   18:50   0.00   58.9    42    3.2   348     6.9   1020.4    0.00 
  64   19:00   0.00   60.1    37    5.2   350     8.0   1020.3    0.00 
  64   19:10   0.00   61.2    34    6.2   345     9.3   1020.2    0.00 
  64   19:20   0.00   61.3    33    5.1   355     8.9   1020.2    0.00 
  64   19:30   0.00   60.2    35    4.1   350     8.6   1020.2    0.00 
  64   19:40   0.00   57.7    41    3.6    20     5.9   1020.3    0.00 
  64   19:50   0.00   57.2    42    2.7    47     4.8   1020.3    0.00 
  64   20:00   0.00   56.8    41    2.5    54     4.4   1020.2    0.00 
  64   20:10   0.00   56.1    43    2.3    58     4.0   1020.1    0.00 
  64   20:20   0.00   56.9    40    2.6    73     4.6   1020.0    0.00 
  64   20:30   0.00   57.7    38    1.4   105     2.9   1020.1    0.00 
  64   20:40   0.00   57.1    39    1.4    54     3.0   1020.2    0.00 
  64   20:50   0.00   57.4    38    2.1    56     3.7   1020.2    0.00 
  64   21:00   0.00   57.0    40    2.1    58     3.6   1020.3    0.00 
  64   21:10   0.00   57.3    40    1.4    43     3.4   1020.5    0.00 
  64   21:20   0.00   56.3    42    2.7    49     5.1   1020.5    0.00 
  64   21:30   0.00   55.5    45    2.5    40     4.5   1020.6    0.00 
  64   21:40   0.00   55.6    45    2.1    22     3.9   1020.5    0.00 
  64   21:50   0.00   55.6    44    1.9    22     3.5   1020.5    0.00 
  64   22:00   0.00   55.9    44    2.7    50     4.9   1020.5    0.00 
  64   22:10   0.00   55.2    45    2.9    58     4.7   1020.4    0.00 
  64   22:20   0.00   55.3    45    2.5    56     4.5   1020.5    0.00 
  64   22:30   0.00   54.7    46    3.0    39     4.5   1020.5    0.00 
  64   22:40   0.00   55.4    44    2.1    35     3.7   1020.5    0.00 
  64   22:50   0.00   55.6    43    3.7    40     4.7   1020.4    0.00 
  64   23:00   0.00   54.5    46    4.3    46     6.3   1020.3    0.00 
  64   23:10   0.00   55.0    45    4.2    49     6.4   1020.3    0.00 
  64   23:20   0.00   55.9    42    3.4    54     5.0   1020.3    0.00 
  64   23:30   0.00   54.2    47    3.5    51     5.7   1020.3    0.00 
  64   23:40   0.00   55.6    43    2.4    42     3.6   1020.2    0.00 
  64   23:50   0.00   55.1    44    3.0    58     5.5   1020.1    0.00 
  65    0:00   0.00   55.9    43    3.7    44     5.0   1020.1    0.00 
  65    0:10   0.00   54.8    47    3.2    52     5.3   1020.0    0.00 
  65    0:20   0.00   54.3    48    3.5    41     5.1   1019.9    0.00 
  65    0:30   0.00   55.7    43    2.8    36     4.4   1019.8    0.00 
  65    0:40   0.00   54.9    47    3.5    40     5.0   1019.8    0.00 
  65    0:50   0.00   54.5    48    4.6    44     5.4   1019.7    0.00 
  65    1:00   0.00   53.9    50    5.1    46     6.5   1019.5    0.00 
  65    1:10   0.00   54.2    48    3.7    44     5.2   1019.5    0.00 
  65    1:20   0.00   55.3    45    2.7    74     3.9   1019.5    0.00 
  65    1:30   0.00   54.9    46    3.6    48     5.6   1019.5    0.00 
  65    1:40   0.00   53.9    49    3.3    44     5.6   1019.5    0.00 
  65    1:50   0.00   54.8    45    3.4    46     5.2   1019.5    0.00 
  65    2:00   0.00   54.3    47    3.1    48     5.0   1019.5    0.00 
  65    2:10   0.00   56.1    42    2.3    53     4.5   1019.5    0.00 
  65    2:20   0.00   55.3    43    2.8    77     4.7   1019.4    0.00 
  65    2:30   0.00   54.2    46    2.4    32     5.8   1019.4    0.00 
  65    2:40   0.00   53.9    47    2.2    39     4.6   1019.3    0.00 
  65    2:50   0.00   54.2    46    2.3    51     5.3   1019.1    0.00 
  65    3:00   0.00   54.8    44    3.0    58     5.0   1018.9    0.00 
  65    3:10   0.00   54.7    44    2.7    48     5.4   1018.8    0.00 
  65    3:20   0.00   54.7    44    3.2    46     5.0   1018.8    0.00 
  65    3:30   0.00   54.3    46    2.4    73     4.4   1018.8    0.00 
  65    3:40   0.00   55.1    43    2.2    82     4.5   1018.7    0.00 
  65    3:50   0.00   54.9    45    2.0    36     4.7   1018.7    0.00 
  65    4:00   0.00   54.0    47    2.2    47     4.2   1018.8    0.00 
  65    4:10   0.00   54.7    45    2.0    47     3.4   1018.7    0.00 
  65    4:20   0.00   55.3    43    2.1    98     3.1   1018.8    0.00 
  65    4:30   0.00   55.3    43    2.0    94     2.9   1018.8    0.00 
  65    4:40   0.00   54.4    46    2.4    68     3.6   1018.9    0.00 
  65    4:50   0.00   53.4    49    1.2    87     3.7   1018.9    0.00 
  65    5:00   0.00   53.9    47    2.0    55     2.9   1018.9    0.00 
  65    5:10   0.00   54.4    46    1.7    64     3.7   1019.0    0.00 
  65    5:20   0.00   54.6    46    1.9   105     3.3   1019.1    0.00 
  65    5:30   0.00   53.4    50    2.2    59     3.7   1019.2    0.00 
  65    5:40   0.00   53.4    50    1.7    39     2.9   1019.2    0.00 

Return to Norris Rancho Marino Reserve graphs page.


Western Regional Climate Center,wrcc@dri.edu